sensor_id;sensor_type;location;lat;lon;timestamp;P1;durP1;ratioP1;P2;durP2;ratioP2
17520;SDS011;8878;-33.370;-70.552;2023-04-06T00:01:37;2.45;;;1.27;;
17520;SDS011;8878;-33.370;-70.552;2023-04-06T00:04:07;5.65;;;1.40;;
17520;SDS011;8878;-33.370;-70.552;2023-04-06T00:06:37;1.35;;;1.25;;
17520;SDS011;8878;-33.370;-70.552;2023-04-06T00:09:14;4.20;;;1.50;;
17520;SDS011;8878;-33.370;-70.552;2023-04-06T00:11:44;4.22;;;1.83;;
17520;SDS011;8878;-33.370;-70.552;2023-04-06T00:14:13;3.92;;;1.40;;
17520;SDS011;8878;-33.370;-70.552;2023-04-06T00:16:45;5.93;;;1.27;;
17520;SDS011;8878;-33.370;-70.552;2023-04-06T00:19:14;2.55;;;1.40;;
17520;SDS011;8878;-33.370;-70.552;2023-04-06T00:21:44;5.38;;;1.52;;
17520;SDS011;8878;-33.370;-70.552;2023-04-06T00:24:14;7.90;;;1.25;;
17520;SDS011;8878;-33.370;-70.552;2023-04-06T00:26:43;4.70;;;1.30;;
17520;SDS011;8878;-33.370;-70.552;2023-04-06T00:29:13;7.43;;;1.73;;
17520;SDS011;8878;-33.370;-70.552;2023-04-06T00:31:45;9.20;;;1.60;;
17520;SDS011;8878;-33.370;-70.552;2023-04-06T00:34:15;1.50;;;1.05;;
17520;SDS011;8878;-33.370;-70.552;2023-04-06T00:36:44;3.20;;;1.83;;
17520;SDS011;8878;-33.370;-70.552;2023-04-06T00:39:13;7.18;;;1.30;;
17520;SDS011;8878;-33.370;-70.552;2023-04-06T00:41:45;2.78;;;1.35;;
17520;SDS011;8878;-33.370;-70.552;2023-04-06T00:44:17;1.75;;;1.33;;
17520;SDS011;8878;-33.370;-70.552;2023-04-06T00:46:48;1.30;;;1.15;;
17520;SDS011;8878;-33.370;-70.552;2023-04-06T00:49:18;5.97;;;1.40;;
17520;SDS011;8878;-33.370;-70.552;2023-04-06T00:51:47;3.17;;;1.42;;
17520;SDS011;8878;-33.370;-70.552;2023-04-06T00:54:17;5.72;;;1.70;;
17520;SDS011;8878;-33.370;-70.552;2023-04-06T00:56:46;3.90;;;1.63;;
17520;SDS011;8878;-33.370;-70.552;2023-04-06T00:59:16;1.90;;;1.27;;
17520;SDS011;8878;-33.370;-70.552;2023-04-06T01:01:46;1.27;;;1.10;;
17520;SDS011;8878;-33.370;-70.552;2023-04-06T01:04:17;4.93;;;1.42;;
17520;SDS011;8878;-33.370;-70.552;2023-04-06T01:06:48;3.60;;;1.60;;
17520;SDS011;8878;-33.370;-70.552;2023-04-06T01:09:18;7.78;;;1.67;;
17520;SDS011;8878;-33.370;-70.552;2023-04-06T01:11:48;1.63;;;0.85;;
17520;SDS011;8878;-33.370;-70.552;2023-04-06T01:14:17;3.58;;;1.42;;
17520;SDS011;8878;-33.370;-70.552;2023-04-06T01:16:49;2.92;;;1.20;;
17520;SDS011;8878;-33.370;-70.552;2023-04-06T01:19:19;4.35;;;1.50;;
17520;SDS011;8878;-33.370;-70.552;2023-04-06T01:21:50;2.70;;;1.80;;
17520;SDS011;8878;-33.370;-70.552;2023-04-06T01:24:23;2.03;;;1.40;;
17520;SDS011;8878;-33.370;-70.552;2023-04-06T01:26:56;7.38;;;1.50;;
17520;SDS011;8878;-33.370;-70.552;2023-04-06T01:29:59;4.75;;;1.75;;
17520;SDS011;8878;-33.370;-70.552;2023-04-06T01:32:29;3.90;;;1.40;;
17520;SDS011;8878;-33.370;-70.552;2023-04-06T01:34:59;3.17;;;1.38;;
17520;SDS011;8878;-33.370;-70.552;2023-04-06T01:37:28;2.58;;;1.83;;
17520;SDS011;8878;-33.370;-70.552;2023-04-06T01:40:00;2.72;;;1.45;;
17520;SDS011;8878;-33.370;-70.552;2023-04-06T01:42:29;4.00;;;1.70;;
17520;SDS011;8878;-33.370;-70.552;2023-04-06T01:44:59;9.25;;;1.95;;
17520;SDS011;8878;-33.370;-70.552;2023-04-06T01:47:29;1.52;;;1.10;;
17520;SDS011;8878;-33.370;-70.552;2023-04-06T01:49:58;11.73;;;1.63;;
17520;SDS011;8878;-33.370;-70.552;2023-04-06T01:52:28;2.05;;;1.20;;
17520;SDS011;8878;-33.370;-70.552;2023-04-06T01:55:00;2.85;;;1.27;;
17520;SDS011;8878;-33.370;-70.552;2023-04-06T01:57:29;1.02;;;0.98;;
17520;SDS011;8878;-33.370;-70.552;2023-04-06T01:59:59;3.97;;;1.65;;
17520;SDS011;8878;-33.370;-70.552;2023-04-06T02:02:29;2.45;;;1.30;;
17520;SDS011;8878;-33.370;-70.552;2023-04-06T02:04:58;4.43;;;1.33;;
17520;SDS011;8878;-33.370;-70.552;2023-04-06T02:07:28;4.43;;;1.40;;
17520;SDS011;8878;-33.370;-70.552;2023-04-06T02:10:00;1.80;;;1.27;;
17520;SDS011;8878;-33.370;-70.552;2023-04-06T02:12:32;13.10;;;1.50;;
17520;SDS011;8878;-33.370;-70.552;2023-04-06T02:15:01;4.35;;;1.52;;
17520;SDS011;8878;-33.370;-70.552;2023-04-06T02:17:32;8.05;;;1.25;;
17520;SDS011;8878;-33.370;-70.552;2023-04-06T02:20:02;7.22;;;1.40;;
17520;SDS011;8878;-33.370;-70.552;2023-04-06T02:22:32;1.50;;;1.40;;
17520;SDS011;8878;-33.370;-70.552;2023-04-06T02:25:07;2.63;;;1.52;;
17520;SDS011;8878;-33.370;-70.552;2023-04-06T02:27:37;4.22;;;1.60;;
17520;SDS011;8878;-33.370;-70.552;2023-04-06T02:30:07;1.42;;;1.30;;
17520;SDS011;8878;-33.370;-70.552;2023-04-06T02:32:37;3.13;;;1.27;;
17520;SDS011;8878;-33.370;-70.552;2023-04-06T02:35:06;7.40;;;1.23;;
17520;SDS011;8878;-33.370;-70.552;2023-04-06T02:37:36;1.92;;;1.08;;
17520;SDS011;8878;-33.370;-70.552;2023-04-06T02:40:08;7.10;;;1.48;;
17520;SDS011;8878;-33.370;-70.552;2023-04-06T02:42:38;4.18;;;1.17;;
17520;SDS011;8878;-33.370;-70.552;2023-04-06T02:45:08;1.60;;;1.23;;
17520;SDS011;8878;-33.370;-70.552;2023-04-06T02:47:38;1.95;;;1.25;;
17520;SDS011;8878;-33.370;-70.552;2023-04-06T02:50:08;1.45;;;1.23;;
17520;SDS011;8878;-33.370;-70.552;2023-04-06T02:52:37;2.30;;;1.30;;
17520;SDS011;8878;-33.370;-70.552;2023-04-06T02:55:10;1.58;;;1.48;;
17520;SDS011;8878;-33.370;-70.552;2023-04-06T02:57:40;5.53;;;0.88;;
17520;SDS011;8878;-33.370;-70.552;2023-04-06T03:00:10;4.25;;;1.17;;
17520;SDS011;8878;-33.370;-70.552;2023-04-06T03:02:47;5.45;;;0.98;;
17520;SDS011;8878;-33.370;-70.552;2023-04-06T03:05:17;3.42;;;1.30;;
17520;SDS011;8878;-33.370;-70.552;2023-04-06T03:07:47;4.97;;;1.20;;
17520;SDS011;8878;-33.370;-70.552;2023-04-06T03:10:18;6.22;;;2.20;;
17520;SDS011;8878;-33.370;-70.552;2023-04-06T03:12:48;4.40;;;1.10;;
17520;SDS011;8878;-33.370;-70.552;2023-04-06T03:15:19;1.92;;;1.02;;
17520;SDS011;8878;-33.370;-70.552;2023-04-06T03:17:49;5.82;;;1.27;;
17520;SDS011;8878;-33.370;-70.552;2023-04-06T03:20:18;2.33;;;1.33;;
17520;SDS011;8878;-33.370;-70.552;2023-04-06T03:22:48;6.75;;;1.20;;
17520;SDS011;8878;-33.370;-70.552;2023-04-06T03:28:26;4.85;;;1.55;;
17520;SDS011;8878;-33.370;-70.552;2023-04-06T03:30:56;1.40;;;0.80;;
17520;SDS011;8878;-33.370;-70.552;2023-04-06T03:33:25;2.58;;;1.02;;
17520;SDS011;8878;-33.370;-70.552;2023-04-06T03:35:56;0.60;;;0.60;;
17520;SDS011;8878;-33.370;-70.552;2023-04-06T03:38:25;1.85;;;1.05;;
17520;SDS011;8878;-33.370;-70.552;2023-04-06T03:40:55;1.90;;;1.50;;
17520;SDS011;8878;-33.370;-70.552;2023-04-06T03:43:26;1.55;;;1.30;;
17520;SDS011;8878;-33.370;-70.552;2023-04-06T03:45:56;7.22;;;1.63;;
17520;SDS011;8878;-33.370;-70.552;2023-04-06T03:48:25;3.30;;;1.67;;
17520;SDS011;8878;-33.370;-70.552;2023-04-06T03:50:55;7.47;;;1.70;;
17520;SDS011;8878;-33.370;-70.552;2023-04-06T03:53:25;3.03;;;1.50;;
17520;SDS011;8878;-33.370;-70.552;2023-04-06T03:55:55;8.27;;;1.98;;
17520;SDS011;8878;-33.370;-70.552;2023-04-06T03:58:26;7.13;;;1.58;;
17520;SDS011;8878;-33.370;-70.552;2023-04-06T04:00:56;1.40;;;1.30;;
17520;SDS011;8878;-33.370;-70.552;2023-04-06T04:03:26;5.38;;;1.55;;
17520;SDS011;8878;-33.370;-70.552;2023-04-06T04:05:56;4.15;;;1.50;;
17520;SDS011;8878;-33.370;-70.552;2023-04-06T04:08:25;6.35;;;2.10;;
17520;SDS011;8878;-33.370;-70.552;2023-04-06T04:10:55;5.07;;;1.38;;
17520;SDS011;8878;-33.370;-70.552;2023-04-06T04:13:26;3.92;;;1.58;;
17520;SDS011;8878;-33.370;-70.552;2023-04-06T04:15:56;5.40;;;1.85;;
17520;SDS011;8878;-33.370;-70.552;2023-04-06T04:18:26;3.28;;;1.35;;
17520;SDS011;8878;-33.370;-70.552;2023-04-06T04:20:55;4.65;;;1.25;;
17520;SDS011;8878;-33.370;-70.552;2023-04-06T04:23:25;2.40;;;1.10;;
17520;SDS011;8878;-33.370;-70.552;2023-04-06T04:25:54;4.10;;;1.35;;
17520;SDS011;8878;-33.370;-70.552;2023-04-06T04:28:24;8.02;;;1.35;;
17520;SDS011;8878;-33.370;-70.552;2023-04-06T04:30:56;2.00;;;1.27;;
17520;SDS011;8878;-33.370;-70.552;2023-04-06T04:33:26;4.07;;;1.73;;
17520;SDS011;8878;-33.370;-70.552;2023-04-06T04:35:56;4.18;;;0.93;;
17520;SDS011;8878;-33.370;-70.552;2023-04-06T04:38:25;1.58;;;0.60;;
17520;SDS011;8878;-33.370;-70.552;2023-04-06T04:40:55;3.90;;;1.30;;
17520;SDS011;8878;-33.370;-70.552;2023-04-06T04:43:25;4.32;;;1.23;;
17520;SDS011;8878;-33.370;-70.552;2023-04-06T04:45:56;6.60;;;0.90;;
17520;SDS011;8878;-33.370;-70.552;2023-04-06T04:48:26;4.85;;;1.00;;
17520;SDS011;8878;-33.370;-70.552;2023-04-06T04:50:55;1.88;;;1.42;;
17520;SDS011;8878;-33.370;-70.552;2023-04-06T04:53:25;6.00;;;1.20;;
17520;SDS011;8878;-33.370;-70.552;2023-04-06T04:55:54;1.30;;;0.60;;
17520;SDS011;8878;-33.370;-70.552;2023-04-06T04:58:24;1.13;;;0.80;;
17520;SDS011;8878;-33.370;-70.552;2023-04-06T05:00:56;2.17;;;0.80;;
17520;SDS011;8878;-33.370;-70.552;2023-04-06T05:03:25;4.88;;;1.05;;
17520;SDS011;8878;-33.370;-70.552;2023-04-06T05:05:55;4.75;;;1.00;;
17520;SDS011;8878;-33.370;-70.552;2023-04-06T05:08:25;1.13;;;0.90;;
17520;SDS011;8878;-33.370;-70.552;2023-04-06T05:10:55;1.88;;;1.08;;
17520;SDS011;8878;-33.370;-70.552;2023-04-06T05:13:24;1.30;;;0.90;;
17520;SDS011;8878;-33.370;-70.552;2023-04-06T05:15:57;1.73;;;0.73;;
17520;SDS011;8878;-33.370;-70.552;2023-04-06T05:18:27;1.25;;;0.82;;
17520;SDS011;8878;-33.370;-70.552;2023-04-06T05:20:57;6.30;;;0.80;;
17520;SDS011;8878;-33.370;-70.552;2023-04-06T05:23:26;1.42;;;1.00;;
17520;SDS011;8878;-33.370;-70.552;2023-04-06T05:25:56;2.75;;;1.02;;
17520;SDS011;8878;-33.370;-70.552;2023-04-06T05:28:28;1.60;;;1.08;;
17520;SDS011;8878;-33.370;-70.552;2023-04-06T05:30:57;5.82;;;0.93;;
17520;SDS011;8878;-33.370;-70.552;2023-04-06T05:33:27;6.85;;;1.15;;
17520;SDS011;8878;-33.370;-70.552;2023-04-06T05:35:57;2.15;;;1.00;;
17520;SDS011;8878;-33.370;-70.552;2023-04-06T05:38:27;2.78;;;1.25;;
17520;SDS011;8878;-33.370;-70.552;2023-04-06T05:40:57;1.38;;;1.02;;
17520;SDS011;8878;-33.370;-70.552;2023-04-06T05:43:28;3.10;;;1.48;;
17520;SDS011;8878;-33.370;-70.552;2023-04-06T05:45:58;0.95;;;0.73;;
17520;SDS011;8878;-33.370;-70.552;2023-04-06T05:48:27;1.13;;;1.02;;
17520;SDS011;8878;-33.370;-70.552;2023-04-06T05:50:57;1.27;;;1.00;;
17520;SDS011;8878;-33.370;-70.552;2023-04-06T05:53:26;1.17;;;0.98;;
17520;SDS011;8878;-33.370;-70.552;2023-04-06T05:55:56;1.63;;;1.10;;
17520;SDS011;8878;-33.370;-70.552;2023-04-06T05:58:30;6.82;;;1.48;;
17520;SDS011;8878;-33.370;-70.552;2023-04-06T06:00:59;7.43;;;0.90;;
17520;SDS011;8878;-33.370;-70.552;2023-04-06T06:03:30;2.00;;;1.00;;
17520;SDS011;8878;-33.370;-70.552;2023-04-06T06:06:00;2.90;;;0.93;;
17520;SDS011;8878;-33.370;-70.552;2023-04-06T06:08:30;2.42;;;0.90;;
17520;SDS011;8878;-33.370;-70.552;2023-04-06T06:11:00;12.50;;;1.45;;
17520;SDS011;8878;-33.370;-70.552;2023-04-06T06:13:32;1.25;;;1.20;;
17520;SDS011;8878;-33.370;-70.552;2023-04-06T06:16:02;2.45;;;1.02;;
17520;SDS011;8878;-33.370;-70.552;2023-04-06T06:18:32;1.25;;;1.10;;
17520;SDS011;8878;-33.370;-70.552;2023-04-06T06:21:02;1.48;;;0.80;;
17520;SDS011;8878;-33.370;-70.552;2023-04-06T06:23:32;1.73;;;1.13;;
17520;SDS011;8878;-33.370;-70.552;2023-04-06T06:26:01;3.13;;;1.15;;
17520;SDS011;8878;-33.370;-70.552;2023-04-06T06:28:33;1.92;;;1.40;;
17520;SDS011;8878;-33.370;-70.552;2023-04-06T06:31:02;4.50;;;1.98;;
17520;SDS011;8878;-33.370;-70.552;2023-04-06T06:33:32;2.10;;;1.00;;
17520;SDS011;8878;-33.370;-70.552;2023-04-06T06:36:02;1.70;;;1.15;;
17520;SDS011;8878;-33.370;-70.552;2023-04-06T06:38:33;2.55;;;1.10;;
17520;SDS011;8878;-33.370;-70.552;2023-04-06T06:41:02;5.68;;;1.10;;
17520;SDS011;8878;-33.370;-70.552;2023-04-06T06:43:34;1.42;;;0.95;;
17520;SDS011;8878;-33.370;-70.552;2023-04-06T06:46:04;2.03;;;1.02;;
17520;SDS011;8878;-33.370;-70.552;2023-04-06T06:48:34;2.50;;;1.13;;
17520;SDS011;8878;-33.370;-70.552;2023-04-06T06:51:03;2.75;;;1.25;;
17520;SDS011;8878;-33.370;-70.552;2023-04-06T06:53:33;1.77;;;0.90;;
17520;SDS011;8878;-33.370;-70.552;2023-04-06T06:56:03;0.88;;;0.80;;
17520;SDS011;8878;-33.370;-70.552;2023-04-06T06:58:34;0.80;;;0.65;;
17520;SDS011;8878;-33.370;-70.552;2023-04-06T07:01:04;1.15;;;0.98;;
17520;SDS011;8878;-33.370;-70.552;2023-04-06T07:03:33;1.70;;;1.20;;
17520;SDS011;8878;-33.370;-70.552;2023-04-06T07:06:04;2.42;;;1.33;;
17520;SDS011;8878;-33.370;-70.552;2023-04-06T07:08:34;2.25;;;1.38;;
17520;SDS011;8878;-33.370;-70.552;2023-04-06T07:11:03;6.30;;;1.17;;
17520;SDS011;8878;-33.370;-70.552;2023-04-06T07:13:36;4.90;;;1.48;;
17520;SDS011;8878;-33.370;-70.552;2023-04-06T07:16:06;2.97;;;1.13;;
17520;SDS011;8878;-33.370;-70.552;2023-04-06T07:18:35;4.65;;;1.35;;
17520;SDS011;8878;-33.370;-70.552;2023-04-06T07:21:05;2.05;;;0.90;;
17520;SDS011;8878;-33.370;-70.552;2023-04-06T07:23:34;0.73;;;0.60;;
17520;SDS011;8878;-33.370;-70.552;2023-04-06T07:26:04;2.72;;;0.95;;
17520;SDS011;8878;-33.370;-70.552;2023-04-06T07:28:35;4.35;;;1.10;;
17520;SDS011;8878;-33.370;-70.552;2023-04-06T07:31:05;4.13;;;1.17;;
17520;SDS011;8878;-33.370;-70.552;2023-04-06T07:33:34;3.55;;;0.85;;
17520;SDS011;8878;-33.370;-70.552;2023-04-06T07:36:04;2.90;;;0.90;;
17520;SDS011;8878;-33.370;-70.552;2023-04-06T07:38:34;1.13;;;0.68;;
17520;SDS011;8878;-33.370;-70.552;2023-04-06T07:41:05;5.10;;;0.88;;
17520;SDS011;8878;-33.370;-70.552;2023-04-06T07:43:37;5.95;;;0.90;;
17520;SDS011;8878;-33.370;-70.552;2023-04-06T07:46:06;4.43;;;1.08;;
17520;SDS011;8878;-33.370;-70.552;2023-04-06T07:48:36;1.05;;;0.93;;
17520;SDS011;8878;-33.370;-70.552;2023-04-06T07:51:06;4.07;;;1.13;;
17520;SDS011;8878;-33.370;-70.552;2023-04-06T07:53:40;2.88;;;1.38;;
17520;SDS011;8878;-33.370;-70.552;2023-04-06T07:56:09;5.00;;;1.10;;
17520;SDS011;8878;-33.370;-70.552;2023-04-06T07:58:43;7.90;;;0.95;;
17520;SDS011;8878;-33.370;-70.552;2023-04-06T08:01:12;1.23;;;0.50;;
17520;SDS011;8878;-33.370;-70.552;2023-04-06T08:03:42;1.23;;;1.10;;
17520;SDS011;8878;-33.370;-70.552;2023-04-06T08:06:12;1.92;;;0.88;;
17520;SDS011;8878;-33.370;-70.552;2023-04-06T08:08:43;0.80;;;0.80;;
17520;SDS011;8878;-33.370;-70.552;2023-04-06T08:11:13;1.35;;;1.15;;
17520;SDS011;8878;-33.370;-70.552;2023-04-06T08:13:44;4.47;;;0.70;;
17520;SDS011;8878;-33.370;-70.552;2023-04-06T08:16:13;1.52;;;0.95;;
17520;SDS011;8878;-33.370;-70.552;2023-04-06T08:18:43;1.58;;;1.05;;
17520;SDS011;8878;-33.370;-70.552;2023-04-06T08:21:14;4.65;;;1.30;;
17520;SDS011;8878;-33.370;-70.552;2023-04-06T08:23:43;9.73;;;1.65;;
17520;SDS011;8878;-33.370;-70.552;2023-04-06T08:26:13;3.15;;;0.80;;
17520;SDS011;8878;-33.370;-70.552;2023-04-06T08:28:44;2.88;;;1.00;;
17520;SDS011;8878;-33.370;-70.552;2023-04-06T08:31:14;1.97;;;1.00;;
17520;SDS011;8878;-33.370;-70.552;2023-04-06T08:33:43;2.97;;;1.00;;
17520;SDS011;8878;-33.370;-70.552;2023-04-06T08:36:13;1.35;;;1.17;;
17520;SDS011;8878;-33.370;-70.552;2023-04-06T08:38:48;2.03;;;0.88;;
17520;SDS011;8878;-33.370;-70.552;2023-04-06T08:41:19;1.05;;;0.90;;
17520;SDS011;8878;-33.370;-70.552;2023-04-06T08:43:51;3.17;;;1.20;;
17520;SDS011;8878;-33.370;-70.552;2023-04-06T08:46:28;4.23;;;1.33;;
17520;SDS011;8878;-33.370;-70.552;2023-04-06T08:49:00;3.60;;;1.20;;
17520;SDS011;8878;-33.370;-70.552;2023-04-06T08:51:32;1.27;;;0.85;;
17520;SDS011;8878;-33.370;-70.552;2023-04-06T08:54:03;1.55;;;1.08;;
17520;SDS011;8878;-33.370;-70.552;2023-04-06T08:56:32;1.90;;;1.17;;
17520;SDS011;8878;-33.370;-70.552;2023-04-06T08:59:08;0.85;;;0.85;;
17520;SDS011;8878;-33.370;-70.552;2023-04-06T09:01:39;2.57;;;0.80;;
17520;SDS011;8878;-33.370;-70.552;2023-04-06T09:04:10;3.03;;;1.50;;
17520;SDS011;8878;-33.370;-70.552;2023-04-06T09:06:40;2.90;;;0.73;;
17520;SDS011;8878;-33.370;-70.552;2023-04-06T09:09:10;1.27;;;1.10;;
17520;SDS011;8878;-33.370;-70.552;2023-04-06T09:11:46;1.13;;;0.73;;
17520;SDS011;8878;-33.370;-70.552;2023-04-06T09:14:32;4.57;;;1.40;;
17520;SDS011;8878;-33.370;-70.552;2023-04-06T09:17:03;4.82;;;1.15;;
17520;SDS011;8878;-33.370;-70.552;2023-04-06T09:19:33;0.77;;;0.77;;
17520;SDS011;8878;-33.370;-70.552;2023-04-06T09:22:13;2.97;;;0.87;;
17520;SDS011;8878;-33.370;-70.552;2023-04-06T09:24:43;1.40;;;0.70;;
17520;SDS011;8878;-33.370;-70.552;2023-04-06T09:27:14;0.93;;;0.93;;
17520;SDS011;8878;-33.370;-70.552;2023-04-06T09:29:45;0.60;;;0.60;;
17520;SDS011;8878;-33.370;-70.552;2023-04-06T09:32:16;2.92;;;0.85;;
17520;SDS011;8878;-33.370;-70.552;2023-04-06T09:34:45;2.85;;;1.23;;
17520;SDS011;8878;-33.370;-70.552;2023-04-06T09:37:15;8.63;;;0.98;;
17520;SDS011;8878;-33.370;-70.552;2023-04-06T09:39:46;2.40;;;1.02;;
17520;SDS011;8878;-33.370;-70.552;2023-04-06T09:42:28;3.28;;;1.13;;
17520;SDS011;8878;-33.370;-70.552;2023-04-06T09:44:59;1.50;;;0.93;;
17520;SDS011;8878;-33.370;-70.552;2023-04-06T09:47:28;1.55;;;0.98;;
17520;SDS011;8878;-33.370;-70.552;2023-04-06T09:49:59;1.90;;;1.23;;
17520;SDS011;8878;-33.370;-70.552;2023-04-06T09:52:30;4.23;;;1.00;;
17520;SDS011;8878;-33.370;-70.552;2023-04-06T09:55:02;1.27;;;1.20;;
17520;SDS011;8878;-33.370;-70.552;2023-04-06T09:57:36;3.23;;;1.17;;
17520;SDS011;8878;-33.370;-70.552;2023-04-06T10:00:14;1.17;;;0.93;;
17520;SDS011;8878;-33.370;-70.552;2023-04-06T10:02:50;1.65;;;0.80;;
17520;SDS011;8878;-33.370;-70.552;2023-04-06T10:05:29;1.47;;;0.80;;
17520;SDS011;8878;-33.370;-70.552;2023-04-06T10:08:06;0.47;;;0.47;;
17520;SDS011;8878;-33.370;-70.552;2023-04-06T10:10:37;1.07;;;1.00;;
17520;SDS011;8878;-33.370;-70.552;2023-04-06T10:13:08;1.27;;;0.93;;
17520;SDS011;8878;-33.370;-70.552;2023-04-06T10:15:41;1.23;;;0.90;;
17520;SDS011;8878;-33.370;-70.552;2023-04-06T10:18:11;1.00;;;1.00;;
17520;SDS011;8878;-33.370;-70.552;2023-04-06T10:20:41;3.33;;;1.40;;
17520;SDS011;8878;-33.370;-70.552;2023-04-06T10:23:19;1.33;;;1.07;;
17520;SDS011;8878;-33.370;-70.552;2023-04-06T10:25:53;4.30;;;1.20;;
17520;SDS011;8878;-33.370;-70.552;2023-04-06T10:28:23;1.70;;;1.03;;
17520;SDS011;8878;-33.370;-70.552;2023-04-06T10:30:59;2.40;;;1.03;;
17520;SDS011;8878;-33.370;-70.552;2023-04-06T10:33:30;4.90;;;0.97;;
17520;SDS011;8878;-33.370;-70.552;2023-04-06T10:36:09;0.97;;;0.93;;
17520;SDS011;8878;-33.370;-70.552;2023-04-06T10:38:39;0.97;;;0.97;;
17520;SDS011;8878;-33.370;-70.552;2023-04-06T10:41:10;1.50;;;1.30;;
17520;SDS011;8878;-33.370;-70.552;2023-04-06T10:43:40;0.93;;;0.90;;
17520;SDS011;8878;-33.370;-70.552;2023-04-06T10:46:11;2.03;;;1.00;;
17520;SDS011;8878;-33.370;-70.552;2023-04-06T10:48:41;2.10;;;1.10;;
17520;SDS011;8878;-33.370;-70.552;2023-04-06T10:51:13;5.10;;;1.17;;
17520;SDS011;8878;-33.370;-70.552;2023-04-06T10:53:44;3.60;;;1.00;;
17520;SDS011;8878;-33.370;-70.552;2023-04-06T10:56:15;2.10;;;0.77;;
17520;SDS011;8878;-33.370;-70.552;2023-04-06T10:58:46;1.63;;;1.00;;
17520;SDS011;8878;-33.370;-70.552;2023-04-06T11:01:18;1.23;;;0.77;;
17520;SDS011;8878;-33.370;-70.552;2023-04-06T11:03:49;3.80;;;0.83;;
17520;SDS011;8878;-33.370;-70.552;2023-04-06T11:06:19;1.33;;;1.10;;
17520;SDS011;8878;-33.370;-70.552;2023-04-06T11:08:50;4.30;;;1.13;;
17520;SDS011;8878;-33.370;-70.552;2023-04-06T11:11:21;4.17;;;1.07;;
17520;SDS011;8878;-33.370;-70.552;2023-04-06T11:13:52;1.40;;;1.20;;
17520;SDS011;8878;-33.370;-70.552;2023-04-06T11:16:24;2.00;;;1.10;;
17520;SDS011;8878;-33.370;-70.552;2023-04-06T11:18:55;0.87;;;0.70;;
17520;SDS011;8878;-33.370;-70.552;2023-04-06T11:21:35;2.27;;;1.40;;
17520;SDS011;8878;-33.370;-70.552;2023-04-06T11:24:06;9.63;;;0.93;;
17520;SDS011;8878;-33.370;-70.552;2023-04-06T11:26:41;1.23;;;0.80;;
17520;SDS011;8878;-33.370;-70.552;2023-04-06T11:29:12;3.37;;;1.13;;
17520;SDS011;8878;-33.370;-70.552;2023-04-06T11:31:44;4.67;;;1.33;;
17520;SDS011;8878;-33.370;-70.552;2023-04-06T11:34:16;8.13;;;1.17;;
17520;SDS011;8878;-33.370;-70.552;2023-04-06T11:36:46;3.90;;;0.90;;
17520;SDS011;8878;-33.370;-70.552;2023-04-06T11:39:19;1.10;;;1.00;;
17520;SDS011;8878;-33.370;-70.552;2023-04-06T11:41:50;3.90;;;1.40;;
17520;SDS011;8878;-33.370;-70.552;2023-04-06T11:44:29;1.47;;;0.93;;
17520;SDS011;8878;-33.370;-70.552;2023-04-06T11:47:03;2.20;;;0.97;;
17520;SDS011;8878;-33.370;-70.552;2023-04-06T11:49:34;1.20;;;1.10;;
17520;SDS011;8878;-33.370;-70.552;2023-04-06T11:52:14;0.80;;;0.77;;
17520;SDS011;8878;-33.370;-70.552;2023-04-06T11:54:44;5.00;;;1.63;;
17520;SDS011;8878;-33.370;-70.552;2023-04-06T11:57:15;0.97;;;0.97;;
17520;SDS011;8878;-33.370;-70.552;2023-04-06T11:59:45;1.83;;;1.67;;
17520;SDS011;8878;-33.370;-70.552;2023-04-06T12:02:18;8.47;;;0.93;;
17520;SDS011;8878;-33.370;-70.552;2023-04-06T12:04:49;3.63;;;1.37;;
17520;SDS011;8878;-33.370;-70.552;2023-04-06T12:07:18;1.07;;;1.03;;
17520;SDS011;8878;-33.370;-70.552;2023-04-06T12:09:48;3.40;;;1.43;;
17520;SDS011;8878;-33.370;-70.552;2023-04-06T12:12:18;2.90;;;1.20;;
17520;SDS011;8878;-33.370;-70.552;2023-04-06T12:14:48;0.77;;;0.77;;
17520;SDS011;8878;-33.370;-70.552;2023-04-06T12:17:20;3.03;;;1.30;;
17520;SDS011;8878;-33.370;-70.552;2023-04-06T12:19:49;3.67;;;1.33;;
17520;SDS011;8878;-33.370;-70.552;2023-04-06T12:22:19;3.38;;;1.25;;
17520;SDS011;8878;-33.370;-70.552;2023-04-06T12:24:48;6.53;;;1.77;;
17520;SDS011;8878;-33.370;-70.552;2023-04-06T12:27:18;0.82;;;0.82;;
17520;SDS011;8878;-33.370;-70.552;2023-04-06T12:29:47;2.03;;;1.45;;
17520;SDS011;8878;-33.370;-70.552;2023-04-06T12:32:17;3.08;;;1.63;;
17520;SDS011;8878;-33.370;-70.552;2023-04-06T12:34:48;3.65;;;1.42;;
17520;SDS011;8878;-33.370;-70.552;2023-04-06T12:37:20;2.83;;;1.25;;
17520;SDS011;8878;-33.370;-70.552;2023-04-06T12:39:50;1.55;;;1.33;;
17520;SDS011;8878;-33.370;-70.552;2023-04-06T12:42:20;3.80;;;1.17;;
17520;SDS011;8878;-33.370;-70.552;2023-04-06T12:44:50;4.78;;;1.10;;
17520;SDS011;8878;-33.370;-70.552;2023-04-06T12:47:22;2.97;;;1.17;;
17520;SDS011;8878;-33.370;-70.552;2023-04-06T12:49:54;4.53;;;1.83;;
17520;SDS011;8878;-33.370;-70.552;2023-04-06T12:52:23;3.60;;;1.40;;
17520;SDS011;8878;-33.370;-70.552;2023-04-06T12:54:53;2.05;;;1.33;;
17520;SDS011;8878;-33.370;-70.552;2023-04-06T12:57:22;1.83;;;1.00;;
17520;SDS011;8878;-33.370;-70.552;2023-04-06T12:59:52;6.65;;;1.60;;
17520;SDS011;8878;-33.370;-70.552;2023-04-06T13:02:24;2.53;;;1.40;;
17520;SDS011;8878;-33.370;-70.552;2023-04-06T13:04:53;3.20;;;1.50;;
17520;SDS011;8878;-33.370;-70.552;2023-04-06T13:07:23;2.60;;;1.33;;
17520;SDS011;8878;-33.370;-70.552;2023-04-06T13:09:52;6.25;;;1.95;;
17520;SDS011;8878;-33.370;-70.552;2023-04-06T13:12:30;12.85;;;1.83;;
17520;SDS011;8878;-33.370;-70.552;2023-04-06T13:15:00;8.25;;;1.90;;
17520;SDS011;8878;-33.370;-70.552;2023-04-06T13:17:32;7.72;;;2.13;;
17520;SDS011;8878;-33.370;-70.552;2023-04-06T13:20:02;3.50;;;1.95;;
17520;SDS011;8878;-33.370;-70.552;2023-04-06T13:22:33;2.47;;;1.67;;
17520;SDS011;8878;-33.370;-70.552;2023-04-06T13:25:03;3.33;;;1.50;;
17520;SDS011;8878;-33.370;-70.552;2023-04-06T13:27:33;4.75;;;1.92;;
17520;SDS011;8878;-33.370;-70.552;2023-04-06T13:30:03;3.10;;;1.55;;
17520;SDS011;8878;-33.370;-70.552;2023-04-06T13:32:34;2.80;;;1.90;;
17520;SDS011;8878;-33.370;-70.552;2023-04-06T13:35:04;5.13;;;1.50;;
17520;SDS011;8878;-33.370;-70.552;2023-04-06T13:37:34;4.32;;;2.20;;
17520;SDS011;8878;-33.370;-70.552;2023-04-06T13:40:04;6.38;;;2.35;;
17520;SDS011;8878;-33.370;-70.552;2023-04-06T13:42:35;7.00;;;2.88;;
17520;SDS011;8878;-33.370;-70.552;2023-04-06T13:45:06;6.82;;;1.42;;
17520;SDS011;8878;-33.370;-70.552;2023-04-06T13:47:38;9.65;;;2.33;;
17520;SDS011;8878;-33.370;-70.552;2023-04-06T13:50:07;7.63;;;1.98;;
17520;SDS011;8878;-33.370;-70.552;2023-04-06T13:52:38;7.28;;;1.77;;
17520;SDS011;8878;-33.370;-70.552;2023-04-06T13:55:08;2.33;;;2.10;;
17520;SDS011;8878;-33.370;-70.552;2023-04-06T13:57:37;4.35;;;1.70;;
17520;SDS011;8878;-33.370;-70.552;2023-04-06T14:00:07;7.22;;;1.60;;
17520;SDS011;8878;-33.370;-70.552;2023-04-06T14:02:41;5.50;;;2.35;;
17520;SDS011;8878;-33.370;-70.552;2023-04-06T14:05:10;5.68;;;2.67;;
17520;SDS011;8878;-33.370;-70.552;2023-04-06T14:07:40;6.63;;;2.22;;
17520;SDS011;8878;-33.370;-70.552;2023-04-06T14:10:10;7.28;;;2.20;;
17520;SDS011;8878;-33.370;-70.552;2023-04-06T14:12:41;4.78;;;1.92;;
17520;SDS011;8878;-33.370;-70.552;2023-04-06T14:15:11;7.93;;;2.25;;
17520;SDS011;8878;-33.370;-70.552;2023-04-06T14:17:42;2.47;;;1.58;;
17520;SDS011;8878;-33.370;-70.552;2023-04-06T14:20:12;5.82;;;2.60;;
17520;SDS011;8878;-33.370;-70.552;2023-04-06T14:22:42;10.02;;;2.00;;
17520;SDS011;8878;-33.370;-70.552;2023-04-06T14:25:12;7.63;;;2.08;;
17520;SDS011;8878;-33.370;-70.552;2023-04-06T14:27:42;4.82;;;1.42;;
17520;SDS011;8878;-33.370;-70.552;2023-04-06T14:30:11;4.22;;;2.25;;
17520;SDS011;8878;-33.370;-70.552;2023-04-06T14:32:43;9.48;;;2.13;;
17520;SDS011;8878;-33.370;-70.552;2023-04-06T14:35:13;2.40;;;1.92;;
17520;SDS011;8878;-33.370;-70.552;2023-04-06T14:37:42;10.32;;;2.70;;
17520;SDS011;8878;-33.370;-70.552;2023-04-06T14:40:12;7.07;;;2.25;;
17520;SDS011;8878;-33.370;-70.552;2023-04-06T14:42:41;4.15;;;2.13;;
17520;SDS011;8878;-33.370;-70.552;2023-04-06T14:45:11;6.80;;;2.40;;